Time;durP1;ratioP1;P1;durP2;ratioP2;P2;SDS_P1;SDS_P2;PMS_P1;PMS_P2;Temp;Humidity;BMP_temperature;BMP_pressure;BME280_temperature;BME280_humidity;BME280_pressure;Samples;Min_cycle;Max_cycle;Signal;HPM_P1;HPM_P2
2021/04/28 00:00:16;;;;;;;5.63;4.10;;;6.10;68.80;;;;;;5112664;28;20370;-72
2021/04/28 00:02:42;;;;;;;7.33;3.83;;;6.10;68.60;;;;;;5111734;28;20304;-73
2021/04/28 00:05:09;;;;;;;4.70;3.97;;;6.10;68.40;;;;;;5112645;28;20302;-73
2021/04/28 00:07:35;;;;;;;6.30;4.33;;;6.10;68.10;;;;;;5112788;28;20048;-73
2021/04/28 00:10:05;;;;;;;7.20;3.63;;;6.10;68.20;;;;;;5111655;28;20366;-72
2021/04/28 00:12:30;;;;;;;7.13;4.00;;;6.00;68.10;;;;;;5112883;28;20044;-72
2021/04/28 00:14:57;;;;;;;5.10;4.17;;;6.00;67.90;;;;;;5111964;27;20388;-73
2021/04/28 00:17:23;;;;;;;8.13;4.80;;;6.00;67.80;;;;;;5111872;28;20849;-73
2021/04/28 00:19:48;;;;;;;4.60;3.80;;;6.00;67.70;;;;;;5112354;28;20082;-73
2021/04/28 00:22:14;;;;;;;7.13;4.97;;;6.00;67.80;;;;;;5112440;28;20067;-72
2021/04/28 00:24:41;;;;;;;7.47;3.90;;;6.00;67.90;;;;;;5111973;28;20514;-73
2021/04/28 00:27:07;;;;;;;4.63;3.30;;;6.00;68.20;;;;;;5111765;28;20499;-73
2021/04/28 00:29:33;;;;;;;7.17;3.93;;;5.90;67.30;;;;;;5111326;28;20340;-73
2021/04/28 00:31:59;;;;;;;5.13;3.73;;;5.90;67.10;;;;;;5111976;28;20044;-73
2021/04/28 00:34:25;;;;;;;4.93;3.47;;;5.90;66.60;;;;;;5112081;28;20301;-74
2021/04/28 00:36:51;;;;;;;6.40;3.27;;;5.80;66.00;;;;;;5111011;28;20776;-73
2021/04/28 00:39:17;;;;;;;7.20;3.43;;;5.80;65.80;;;;;;5112043;28;20369;-73
2021/04/28 00:41:43;;;;;;;4.77;3.40;;;5.80;65.60;;;;;;5111835;28;20059;-73
2021/04/28 00:44:10;;;;;;;5.03;3.00;;;5.70;65.20;;;;;;5111454;28;20044;-73
2021/04/28 00:46:36;;;;;;;6.30;2.90;;;5.70;65.10;;;;;;5112276;28;20364;-72
2021/04/28 00:49:02;;;;;;;5.27;3.40;;;5.70;64.60;;;;;;5111585;28;20391;-73
2021/04/28 00:51:27;;;;;;;5.17;3.57;;;5.70;64.50;;;;;;5111540;28;20317;-72
2021/04/28 00:53:54;;;;;;;5.20;2.90;;;5.70;64.40;;;;;;5111941;28;20456;-73
2021/04/28 00:56:19;;;;;;;5.77;4.20;;;5.70;64.10;;;;;;5112246;28;20407;-72
2021/04/28 00:58:45;;;;;;;3.87;3.07;;;5.70;64.10;;;;;;5110423;28;20313;-73
2021/04/28 01:01:11;;;;;;;5.63;3.43;;;5.60;64.10;;;;;;5111932;28;20116;-72
2021/04/28 01:03:38;;;;;;;5.47;3.20;;;5.60;64.20;;;;;;5111784;28;20044;-72
2021/04/28 01:06:06;;;;;;;6.17;3.10;;;5.60;64.00;;;;;;5110595;28;20309;-72
2021/04/28 01:08:33;;;;;;;6.63;3.47;;;5.60;64.00;;;;;;5112189;28;20320;-73
2021/04/28 01:10:59;;;;;;;5.80;3.57;;;5.50;64.00;;;;;;5111585;28;20385;-73
2021/04/28 01:13:25;;;;;;;4.83;3.00;;;5.50;64.00;;;;;;5111288;28;20344;-72
2021/04/28 01:15:54;;;;;;;4.93;3.20;;;5.50;63.90;;;;;;5111665;28;20329;-72
2021/04/28 01:18:21;;;;;;;5.73;3.37;;;5.40;63.70;;;;;;5111803;28;20293;-73
2021/04/28 01:20:47;;;;;;;5.47;4.17;;;5.40;63.80;;;;;;5110996;28;20316;-72
2021/04/28 01:23:15;;;;;;;4.57;3.37;;;5.40;63.90;;;;;;5111645;28;20354;-73
2021/04/28 01:25:41;;;;;;;4.83;2.97;;;5.30;64.00;;;;;;5111626;28;20293;-73
2021/04/28 01:28:20;;;;;;;6.13;3.30;;;5.20;64.00;;;;;;5110976;28;20317;-73
2021/04/28 01:30:57;;;;;;;6.43;3.00;;;5.20;64.10;;;;;;5111505;28;20297;-73
2021/04/28 01:33:45;;;;;;;4.47;3.00;;;5.20;64.10;;;;;;5111236;28;20297;-72
2021/04/28 01:36:18;;;;;;;3.27;2.50;;;5.10;64.10;;;;;;5111307;28;20328;-73
2021/04/28 01:38:46;;;;;;;4.73;2.70;;;5.10;64.30;;;;;;5111323;28;20320;-73
2021/04/28 01:41:13;;;;;;;5.53;3.17;;;5.00;64.30;;;;;;5114405;28;20325;-72
2021/04/28 01:43:41;;;;;;;4.80;3.00;;;5.00;64.30;;;;;;5115816;28;20329;-72
2021/04/28 01:46:08;;;;;;;5.37;3.07;;;5.00;64.20;;;;;;5115324;28;20300;-73
2021/04/28 01:48:35;;;;;;;3.77;2.67;;;4.90;64.30;;;;;;5114586;28;20345;-73
2021/04/28 01:51:01;;;;;;;5.07;2.90;;;4.90;64.40;;;;;;5115128;28;20718;-73
2021/04/28 01:53:27;;;;;;;6.27;3.03;;;4.90;64.40;;;;;;5115279;27;20306;-72
2021/04/28 01:55:55;;;;;;;5.40;3.20;;;4.90;64.50;;;;;;5114377;28;20766;-73
2021/04/28 01:58:22;;;;;;;4.80;2.60;;;4.90;64.60;;;;;;5115296;28;20044;-73
2021/04/28 02:00:49;;;;;;;8.80;4.07;;;4.80;64.30;;;;;;5115042;28;20312;-72
2021/04/28 02:03:15;;;;;;;4.40;2.67;;;4.80;64.40;;;;;;5114432;28;20305;-72
2021/04/28 02:05:41;;;;;;;5.67;2.70;;;4.80;64.40;;;;;;5114922;28;20700;-72
2021/04/28 02:08:07;;;;;;;5.53;2.50;;;4.70;64.30;;;;;;5113919;28;20047;-72
2021/04/28 02:10:33;;;;;;;3.73;2.40;;;4.70;64.00;;;;;;5115186;28;20646;-72
2021/04/28 02:13:01;;;;;;;4.03;2.93;;;4.70;63.90;;;;;;5114377;28;20301;-73
2021/04/28 02:15:28;;;;;;;5.13;2.73;;;4.60;63.80;;;;;;5113977;27;20761;-72
2021/04/28 02:17:57;;;;;;;4.53;2.43;;;4.60;63.70;;;;;;5114894;28;20328;-72
2021/04/28 02:20:25;;;;;;;3.13;2.47;;;4.60;63.70;;;;;;5114853;28;20713;-73
2021/04/28 02:22:51;;;;;;;4.33;2.53;;;4.50;63.80;;;;;;5113695;28;20366;-72
2021/04/28 02:25:17;;;;;;;4.93;2.77;;;4.50;63.70;;;;;;5114609;28;20380;-72
2021/04/28 02:27:43;;;;;;;3.87;2.40;;;4.40;63.80;;;;;;5114457;28;20405;-72
2021/04/28 02:30:15;;;;;;;4.40;2.60;;;4.40;63.90;;;;;;5113667;28;20388;-72
2021/04/28 02:32:45;;;;;;;5.87;2.60;;;4.40;64.10;;;;;;5114598;28;20449;-72
2021/04/28 02:35:13;;;;;;;4.60;2.40;;;4.40;64.20;;;;;;5114480;28;20293;-72
2021/04/28 02:37:41;;;;;;;4.47;2.93;;;4.40;64.30;;;;;;5113547;28;20303;-72
2021/04/28 02:40:11;;;;;;;4.17;2.43;;;4.30;64.30;;;;;;5113688;28;20358;-72
2021/04/28 02:42:39;;;;;;;4.00;2.60;;;4.40;64.40;;;;;;5114429;28;20296;-72
2021/04/28 02:45:07;;;;;;;7.00;2.77;;;4.30;64.40;;;;;;5112803;28;20792;-72
2021/04/28 02:47:34;;;;;;;4.47;2.70;;;4.40;64.70;;;;;;5114285;28;20307;-72
2021/04/28 02:50:03;;;;;;;4.00;2.40;;;4.30;64.80;;;;;;5113437;28;20300;-72
2021/04/28 02:52:30;;;;;;;3.27;2.30;;;4.30;64.90;;;;;;5113391;28;20797;-72
2021/04/28 02:54:56;;;;;;;4.47;2.83;;;4.40;65.00;;;;;;5113784;28;20380;-72
2021/04/28 02:57:23;;;;;;;6.30;2.83;;;4.30;65.00;;;;;;5113494;28;20361;-72
2021/04/28 02:59:50;;;;;;;4.97;3.30;;;4.30;65.30;;;;;;5113654;28;20293;-72
2021/04/28 03:02:17;;;;;;;4.77;3.13;;;4.20;65.50;;;;;;5113698;28;20294;-72
2021/04/28 03:04:44;;;;;;;4.33;2.77;;;4.20;65.70;;;;;;5113148;28;20297;-72
2021/04/28 03:07:14;;;;;;;4.53;2.77;;;4.20;65.90;;;;;;5113349;28;20774;-72
2021/04/28 03:09:40;;;;;;;5.33;3.20;;;4.10;66.20;;;;;;5114040;28;20306;-72
2021/04/28 03:12:07;;;;;;;5.47;3.23;;;4.10;66.50;;;;;;5112733;28;20369;-72
2021/04/28 03:14:33;;;;;;;4.40;3.07;;;4.00;66.50;;;;;;5113952;28;20293;-72
2021/04/28 03:16:59;;;;;;;5.10;3.07;;;4.00;66.90;;;;;;5112670;27;20626;-72
2021/04/28 03:19:25;;;;;;;10.53;3.93;;;4.00;67.00;;;;;;5113045;28;20063;-72
2021/04/28 03:21:51;;;;;;;4.53;3.00;;;4.00;67.20;;;;;;5113359;28;20696;-72
2021/04/28 03:24:21;;;;;;;8.70;3.90;;;4.00;67.30;;;;;;5113191;28;20573;-72
2021/04/28 03:26:51;;;;;;;7.43;3.43;;;4.00;68.30;;;;;;5112466;28;20657;-72
2021/04/28 03:29:17;;;;;;;5.37;3.23;;;4.00;67.40;;;;;;5113215;28;20370;-72
2021/04/28 03:31:43;;;;;;;4.70;3.13;;;4.00;67.50;;;;;;5113222;28;20297;-72
2021/04/28 03:34:08;;;;;;;6.83;3.43;;;4.00;67.70;;;;;;5112483;28;20047;-72
2021/04/28 03:36:34;;;;;;;8.13;3.33;;;4.00;67.70;;;;;;5113197;28;20135;-71
2021/04/28 03:38:59;;;;;;;4.73;3.20;;;3.90;67.90;;;;;;5112406;28;20442;-72
2021/04/28 03:41:27;;;;;;;4.60;3.83;;;4.00;67.90;;;;;;5112541;28;20047;-72
2021/04/28 03:43:53;;;;;;;4.43;3.73;;;4.00;67.90;;;;;;5112857;28;20078;-72
2021/04/28 03:46:21;;;;;;;7.15;3.70;;;4.00;68.00;;;;;;5113437;28;20646;-72
2021/04/28 03:48:47;;;;;;;5.20;3.43;;;4.00;68.10;;;;;;5112124;28;20048;-71
2021/04/28 03:51:13;;;;;;;6.40;3.50;;;4.00;68.20;;;;;;5112600;28;20055;-72
2021/04/28 03:53:39;;;;;;;4.43;3.30;;;4.00;68.10;;;;;;5112371;28;20298;-72
2021/04/28 03:56:05;;;;;;;6.57;3.17;;;4.00;68.30;;;;;;5112395;28;20050;-72
2021/04/28 03:58:30;;;;;;;6.27;3.57;;;4.00;68.20;;;;;;5112683;28;20052;-72
2021/04/28 04:00:56;;;;;;;6.33;3.40;;;4.00;68.40;;;;;;5111559;28;20321;-72
2021/04/28 04:03:22;;;;;;;5.00;3.50;;;4.00;68.60;;;;;;5112531;28;20134;-72
2021/04/28 04:05:49;;;;;;;6.30;4.00;;;3.90;68.70;;;;;;5112381;28;20169;-72
2021/04/28 04:08:15;;;;;;;5.47;3.60;;;3.90;68.80;;;;;;5111682;28;20321;-72
2021/04/28 04:10:41;;;;;;;4.77;3.77;;;4.00;68.90;;;;;;5112582;28;20305;-72
2021/04/28 04:13:09;;;;;;;4.80;3.30;;;4.00;69.00;;;;;;5112132;28;20717;-72
2021/04/28 04:15:35;;;;;;;5.77;3.83;;;4.00;69.20;;;;;;5111860;28;20401;-72
2021/04/28 04:18:01;;;;;;;7.53;4.00;;;4.00;69.30;;;;;;5112039;28;20488;-72
2021/04/28 04:20:27;;;;;;;5.93;3.50;;;4.00;69.40;;;;;;5112592;28;20097;-72
2021/04/28 04:22:53;;;;;;;5.43;4.40;;;4.00;69.10;;;;;;5111539;28;20301;-72
2021/04/28 04:25:18;;;;;;;8.60;4.03;;;4.00;69.10;;;;;;5112276;28;20048;-72
2021/04/28 04:27:44;;;;;;;6.73;3.90;;;4.00;69.10;;;;;;5111678;28;20451;-72
2021/04/28 04:30:11;;;;;;;6.43;3.17;;;4.10;69.20;;;;;;5111413;28;20051;-72
2021/04/28 04:32:37;;;;;;;6.78;4.63;;;4.10;69.20;;;;;;5110940;28;20496;-72
2021/04/28 04:35:06;;;;;;;5.07;3.30;;;4.10;69.20;;;;;;5111798;28;20079;-72
2021/04/28 04:37:32;;;;;;;6.17;4.17;;;4.20;69.10;;;;;;5111369;28;20309;-72
2021/04/28 04:39:58;;;;;;;7.17;3.53;;;4.20;68.80;;;;;;5111735;28;20297;-72
2021/04/28 04:42:24;;;;;;;5.83;3.60;;;4.20;68.70;;;;;;5112037;28;20052;-72
2021/04/28 04:44:50;;;;;;;7.23;3.93;;;4.30;68.60;;;;;;5111059;28;20488;-72
2021/04/28 04:47:16;;;;;;;6.30;3.67;;;4.30;68.60;;;;;;5111683;28;20789;-73
2021/04/28 04:49:42;;;;;;;5.50;3.33;;;4.40;68.60;;;;;;5111807;28;20304;-72
2021/04/28 04:52:08;;;;;;;6.73;3.50;;;4.40;68.50;;;;;;5111042;28;20047;-73
2021/04/28 04:54:34;;;;;;;4.47;3.33;;;4.50;68.30;;;;;;5112265;28;20374;-72
2021/04/28 04:57:00;;;;;;;6.37;3.73;;;4.50;68.10;;;;;;5110453;28;20912;-73
2021/04/28 04:59:26;;;;;;;4.17;3.13;;;4.60;68.00;;;;;;5111891;28;20044;-73
2021/04/28 05:01:52;;;;;;;4.93;3.40;;;4.60;67.70;;;;;;5111500;28;20043;-72
2021/04/28 05:04:17;;;;;;;5.90;3.73;;;4.70;67.60;;;;;;5110963;28;20039;-72
2021/04/28 05:06:43;;;;;;;7.60;3.90;;;4.70;67.60;;;;;;5111916;28;20077;-73
2021/04/28 05:09:09;;;;;;;6.27;3.67;;;4.80;67.50;;;;;;5111356;28;20048;-72
2021/04/28 05:11:34;;;;;;;4.50;4.03;;;4.80;67.30;;;;;;5111306;28;20052;-72
2021/04/28 05:14:02;;;;;;;5.23;3.77;;;4.90;67.30;;;;;;5111604;28;20231;-72
2021/04/28 05:16:34;;;;;;;6.53;3.80;;;4.90;67.20;;;;;;5115929;27;20047;-72
2021/04/28 05:19:00;;;;;;;9.23;4.30;;;5.00;66.80;;;;;;5114861;28;20319;-72
2021/04/28 05:21:26;;;;;;;13.17;4.93;;;5.00;66.90;;;;;;5115977;28;20297;-72
2021/04/28 05:23:52;;;;;;;11.23;4.30;;;5.10;66.90;;;;;;5115462;28;20293;-72
2021/04/28 05:26:17;;;;;;;7.17;3.77;;;5.20;66.90;;;;;;5114463;28;20453;-71
2021/04/28 05:28:43;;;;;;;6.30;3.33;;;5.60;66.90;;;;;;5115425;28;20075;-72
2021/04/28 05:31:09;;;;;;;8.20;3.60;;;6.20;66.50;;;;;;5115352;28;20457;-71
2021/04/28 05:33:36;;;;;;;6.97;3.90;;;7.00;64.80;;;;;;5114929;28;20120;-72
2021/04/28 05:36:04;;;;;;;7.87;4.13;;;7.50;62.70;;;;;;5114940;28;20135;-72
2021/04/28 05:38:30;;;;;;;5.53;3.30;;;7.70;61.90;;;;;;5115444;28;20309;-71
2021/04/28 05:40:56;;;;;;;6.70;3.70;;;8.00;61.90;;;;;;5114013;27;20301;-72
2021/04/28 05:43:22;;;;;;;7.63;3.87;;;8.30;60.40;;;;;;5115605;28;20054;-71
2021/04/28 05:45:48;;;;;;;5.57;4.07;;;8.50;60.10;;;;;;5115137;27;20747;-71
2021/04/28 05:48:15;;;;;;;5.30;3.60;;;8.60;59.50;;;;;;5113582;28;20388;-71
2021/04/28 05:50:43;;;;;;;8.67;3.93;;;8.70;59.40;;;;;;5115386;28;20047;-71
2021/04/28 05:53:09;;;;;;;7.83;4.23;;;8.60;59.10;;;;;;5113934;28;20346;-71
2021/04/28 05:55:36;;;;;;;6.63;3.70;;;8.40;58.80;;;;;;5115211;28;20293;-72
2021/04/28 05:58:05;;;;;;;6.47;3.57;;;8.40;59.00;;;;;;5114741;28;20328;-73
2021/04/28 06:00:32;;;;;;;6.40;3.60;;;8.60;58.10;;;;;;5114262;28;20293;-71
2021/04/28 06:02:57;;;;;;;5.60;4.00;;;8.70;57.00;;;;;;5114251;28;20339;-71
2021/04/28 06:05:23;;;;;;;7.23;4.30;;;8.30;57.10;;;;;;5114810;28;20293;-71
2021/04/28 06:07:49;;;;;;;8.90;3.83;;;8.00;57.20;;;;;;5113736;28;20388;-72
2021/04/28 06:10:16;;;;;;;6.07;3.93;;;7.70;57.50;;;;;;5115069;28;20051;-72
2021/04/28 06:12:42;;;;;;;4.90;3.23;;;7.50;57.90;;;;;;5114517;28;20101;-72
2021/04/28 06:15:13;;;;;;;6.60;3.70;;;7.50;58.00;;;;;;5113880;28;20318;-71
2021/04/28 06:17:40;;;;;;;7.30;4.93;;;7.60;58.00;;;;;;5114670;28;20307;-71
2021/04/28 06:20:09;;;;;;;6.57;3.80;;;7.70;57.80;;;;;;5114494;28;20297;-71
2021/04/28 06:22:36;;;;;;;7.83;4.10;;;7.70;57.60;;;;;;5114024;28;20691;-71
2021/04/28 06:25:02;;;;;;;8.10;3.57;;;7.70;56.70;;;;;;5112171;28;20297;-71
2021/04/28 06:27:28;;;;;;;6.23;4.03;;;7.60;56.80;;;;;;5114687;28;20044;-70
2021/04/28 06:29:53;;;;;;;7.30;3.80;;;7.50;56.80;;;;;;5113470;28;20331;-72
2021/04/28 06:32:21;;;;;;;7.70;4.00;;;7.40;56.90;;;;;;5114362;28;20092;-73
2021/04/28 06:34:47;;;;;;;8.43;4.37;;;7.50;56.90;;;;;;5113916;28;20297;-77
2021/04/28 06:37:12;;;;;;;6.43;4.10;;;7.60;56.70;;;;;;5113235;28;20080;-73
2021/04/28 06:39:39;;;;;;;6.90;3.93;;;7.80;57.50;;;;;;5114514;28;20491;-73
2021/04/28 06:42:04;;;;;;;7.17;4.50;;;8.10;56.30;;;;;;5113844;28;20047;-73
2021/04/28 06:44:30;;;;;;;7.23;3.93;;;8.60;55.90;;;;;;5113706;28;20289;-71
2021/04/28 06:46:58;;;;;;;7.30;4.40;;;8.80;55.10;;;;;;5113421;28;20468;-72
2021/04/28 06:49:24;;;;;;;8.47;4.87;;;8.80;54.80;;;;;;5113420;28;20390;-71
2021/04/28 06:51:50;;;;;;;8.67;4.00;;;8.80;55.70;;;;;;5113582;28;20419;-71
2021/04/28 06:54:15;;;;;;;6.67;4.40;;;9.00;54.80;;;;;;5113568;28;20063;-71
2021/04/28 06:56:43;;;;;;;8.87;4.17;;;9.30;54.40;;;;;;5108280;28;20055;-74
2021/04/28 06:59:17;;;;;;;6.47;4.47;;;9.50;53.80;;;;;;5111335;28;20068;-72
2021/04/28 07:01:45;;;;;;;7.33;4.30;;;9.80;53.10;;;;;;5111928;28;20301;-73
2021/04/28 07:04:11;;;;;;;8.97;4.60;;;9.90;52.70;;;;;;5111695;28;20320;-74
2021/04/28 07:06:37;;;;;;;10.90;4.93;;;9.90;52.80;;;;;;5112387;28;20330;-74
2021/04/28 07:09:04;;;;;;;5.50;4.00;;;10.10;52.60;;;;;;5111719;28;20062;-74
2021/04/28 07:11:31;;;;;;;6.03;4.23;;;10.40;52.50;;;;;;5111323;28;20289;-72
2021/04/28 07:13:56;;;;;;;6.50;4.63;;;10.50;51.40;;;;;;5112171;28;20297;-70
2021/04/28 07:16:22;;;;;;;5.23;3.83;;;10.50;51.50;;;;;;5112156;28;20388;-70
2021/04/28 07:18:48;;;;;;;5.80;4.60;;;10.60;51.30;;;;;;5111465;27;20478;-70
2021/04/28 07:21:13;;;;;;;8.07;4.77;;;10.70;51.00;;;;;;5111587;28;20051;-70
2021/04/28 07:23:40;;;;;;;8.70;5.10;;;10.70;50.50;;;;;;5112525;27;20055;-69
2021/04/28 07:26:08;;;;;;;5.37;4.23;;;10.70;50.70;;;;;;5110965;28;20301;-72
2021/04/28 07:28:34;;;;;;;8.80;4.87;;;10.70;51.10;;;;;;5111192;28;20052;-72
2021/04/28 07:31:00;;;;;;;7.73;4.57;;;10.90;50.80;;;;;;5111236;28;20050;-71
2021/04/28 07:33:25;;;;;;;6.80;4.50;;;11.00;50.20;;;;;;5111580;28;20055;-71
2021/04/28 07:35:51;;;;;;;7.20;4.37;;;11.20;49.90;;;;;;5111350;28;20058;-71
2021/04/28 07:38:17;;;;;;;9.13;5.07;;;11.30;50.00;;;;;;5110700;28;20062;-70
2021/04/28 07:40:42;;;;;;;7.63;4.57;;;11.30;49.50;;;;;;5109887;28;20070;-69
2021/04/28 07:43:08;;;;;;;6.73;4.90;;;11.20;49.60;;;;;;5109954;28;20047;-70
2021/04/28 07:45:35;;;;;;;7.73;5.07;;;11.20;49.70;;;;;;5109650;28;20043;-72
2021/04/28 07:48:09;;;;;;;6.63;4.33;;;11.20;49.20;;;;;;5109744;28;20139;-75
2021/04/28 07:50:36;;;;;;;6.90;4.63;;;11.30;49.20;;;;;;5107699;28;20553;-73
2021/04/28 07:53:02;;;;;;;7.17;5.07;;;11.50;48.90;;;;;;5108833;28;20040;-76
2021/04/28 07:55:29;;;;;;;7.77;5.30;;;11.80;48.30;;;;;;5109082;28;20142;-74
2021/04/28 07:57:56;;;;;;;7.57;4.80;;;12.10;48.10;;;;;;5107482;28;20059;-72
2021/04/28 08:00:22;;;;;;;5.97;4.80;;;12.20;47.90;;;;;;5110157;28;20070;-73
2021/04/28 08:02:48;;;;;;;9.47;5.33;;;12.30;47.00;;;;;;5110932;28;20052;-73
2021/04/28 08:05:13;;;;;;;10.17;4.93;;;12.50;46.80;;;;;;5111083;28;20437;-72
2021/04/28 08:07:39;;;;;;;9.13;5.60;;;12.70;47.10;;;;;;5110729;28;20210;-72
2021/04/28 08:10:06;;;;;;;7.00;5.03;;;13.20;47.10;;;;;;5110137;28;20522;-71
2021/04/28 08:12:32;;;;;;;9.60;5.47;;;13.60;46.60;;;;;;5111073;28;20055;-73
2021/04/28 08:15:00;;;;;;;7.13;5.30;;;14.00;46.10;;;;;;5109416;28;20052;-72
2021/04/28 08:17:26;;;;;;;9.97;5.23;;;14.40;45.60;;;;;;5111408;28;20048;-72
2021/04/28 08:19:51;;;;;;;10.53;6.13;;;14.60;44.80;;;;;;5110790;28;20062;-72
2021/04/28 08:22:17;;;;;;;9.37;5.53;;;14.90;44.30;;;;;;5109968;28;20055;-72
2021/04/28 08:24:43;;;;;;;8.07;5.77;;;15.10;43.80;;;;;;5110908;28;20097;-73
2021/04/28 08:27:09;;;;;;;7.70;5.60;;;15.20;43.30;;;;;;5110981;28;20051;-73
2021/04/28 08:29:34;;;;;;;8.13;5.13;;;15.20;42.40;;;;;;5110030;28;20120;-73
2021/04/28 08:32:00;;;;;;;8.77;5.47;;;15.10;42.30;;;;;;5110068;28;20047;-73
2021/04/28 08:34:25;;;;;;;10.33;5.43;;;15.00;42.60;;;;;;5111000;28;20077;-75
2021/04/28 08:36:51;;;;;;;6.70;5.17;;;14.90;42.20;;;;;;5109329;28;20475;-76
2021/04/28 08:39:17;;;;;;;9.67;6.03;;;14.90;41.50;;;;;;5110583;28;20054;-80
2021/04/28 08:41:46;;;;;;;7.90;5.53;;;15.00;42.20;;;;;;5110115;28;20052;-74
2021/04/28 08:44:13;;;;;;;9.17;6.07;;;15.10;41.40;;;;;;5109568;28;20471;-75
2021/04/28 08:46:38;;;;;;;8.97;6.10;;;15.30;41.10;;;;;;5110364;28;20043;-73
2021/04/28 08:49:05;;;;;;;9.50;6.10;;;15.40;41.00;;;;;;5109072;28;20690;-75
2021/04/28 08:51:31;;;;;;;8.37;6.30;;;15.50;40.10;;;;;;5110948;28;20078;-74
2021/04/28 08:53:57;;;;;;;6.47;5.73;;;15.60;40.40;;;;;;5109717;28;20052;-74
2021/04/28 08:56:24;;;;;;;7.80;5.47;;;15.70;40.10;;;;;;5109631;28;20397;-75
2021/04/28 08:58:50;;;;;;;8.13;5.63;;;15.80;39.90;;;;;;5104267;28;20062;-74
2021/04/28 09:01:33;;;;;;;9.47;5.97;;;16.00;40.20;;;;;;5110489;28;20047;-76
2021/04/28 09:04:00;;;;;;;7.47;5.70;;;16.30;37.90;;;;;;5109252;28;20058;-76
2021/04/28 09:06:27;;;;;;;7.47;5.77;;;16.30;38.90;;;;;;5110422;28;20051;-74
2021/04/28 09:08:53;;;;;;;9.53;6.23;;;16.40;38.90;;;;;;5110129;28;20100;-76
2021/04/28 09:11:41;;;;;;;6.53;5.77;;;16.60;38.40;;;;;;5109987;28;20404;-78
2021/04/28 09:14:13;;;;;;;7.53;5.87;;;16.60;36.80;;;;;;5110125;28;20415;-71
2021/04/28 09:16:40;;;;;;;8.83;6.07;;;16.60;36.90;;;;;;5109264;28;20563;-74
2021/04/28 09:19:07;;;;;;;6.77;5.60;;;16.50;37.40;;;;;;5109257;28;20036;-75
2021/04/28 09:21:53;;;;;;;6.97;5.53;;;16.60;37.40;;;;;;5106953;28;20056;-79
2021/04/28 09:24:24;;;;;;;7.50;5.70;;;16.60;36.60;;;;;;5089198;28;20060;-77
2021/04/28 09:26:54;;;;;;;9.67;5.73;;;16.60;35.90;;;;;;5089635;28;20048;-75
2021/04/28 09:29:23;;;;;;;7.33;6.00;;;16.50;36.40;;;;;;5089796;28;20078;-75
2021/04/28 09:32:01;;;;;;;8.77;5.70;;;16.70;36.20;;;;;;5106122;28;20051;-79
2021/04/28 09:34:39;;;;;;;9.27;5.97;;;16.60;34.00;;;;;;5110274;28;20048;-75
2021/04/28 09:37:07;;;;;;;7.93;5.60;;;16.40;34.60;;;;;;5109219;28;20055;-75
2021/04/28 09:39:43;;;;;;;8.33;6.53;;;16.20;35.20;;;;;;5106710;28;20051;-80
2021/04/28 09:42:10;;;;;;;9.97;6.10;;;16.20;35.60;;;;;;5090762;28;20097;-75
2021/04/28 09:44:37;;;;;;;7.60;4.87;;;16.30;35.80;;;;;;5091020;28;20048;-75
2021/04/28 09:47:21;;;;;;;10.67;5.30;;;16.30;35.10;;;;;;5089969;28;20047;-75
2021/04/28 09:50:01;;;;;;;7.53;5.83;;;16.20;34.10;;;;;;5090896;28;20048;-77
2021/04/28 09:52:30;;;;;;;7.53;6.00;;;16.10;34.20;;;;;;5090286;28;20797;-74
2021/04/28 09:54:59;;;;;;;9.57;5.87;;;16.00;33.90;;;;;;5090546;28;20051;-75
2021/04/28 09:57:44;;;;;;;8.97;5.47;;;16.00;34.00;;;;;;5090785;28;20500;-74
2021/04/28 10:00:25;;;;;;;7.90;6.20;;;16.00;34.20;;;;;;5090503;28;20132;-74
2021/04/28 10:02:55;;;;;;;9.20;6.70;;;16.00;33.60;;;;;;5093861;28;20055;-74
2021/04/28 10:05:41;;;;;;;8.70;6.37;;;15.90;33.80;;;;;;5093271;28;20150;-74
2021/04/28 10:08:23;;;;;;;12.20;6.43;;;15.70;34.10;;;;;;5091702;28;20052;-74
2021/04/28 10:10:52;;;;;;;9.77;6.97;;;15.50;34.20;;;;;;5092105;28;20127;-75
2021/04/28 10:13:18;;;;;;;8.00;5.80;;;15.40;34.10;;;;;;5091315;28;20052;-75
2021/04/28 10:15:44;;;;;;;9.77;6.67;;;15.30;33.80;;;;;;5092013;28;20044;-76
2021/04/28 10:18:12;;;;;;;12.23;7.47;;;15.30;34.00;;;;;;5092073;28;20557;-75
2021/04/28 10:20:40;;;;;;;10.73;7.33;;;15.20;34.70;;;;;;5093623;28;20052;-75
2021/04/28 10:23:08;;;;;;;11.43;7.23;;;15.30;34.90;;;;;;5094361;28;20052;-74
2021/04/28 10:25:35;;;;;;;9.07;6.93;;;15.30;35.00;;;;;;5094333;28;20101;-75
2021/04/28 10:28:05;;;;;;;7.57;6.60;;;15.40;35.60;;;;;;5092844;28;20128;-74
2021/04/28 10:30:34;;;;;;;10.53;7.50;;;15.50;35.10;;;;;;5094246;28;20048;-74
2021/04/28 10:33:02;;;;;;;12.43;7.03;;;15.60;35.20;;;;;;5093649;28;20052;-75
2021/04/28 10:35:29;;;;;;;7.80;6.73;;;15.60;34.90;;;;;;5093185;28;20072;-75
2021/04/28 10:37:56;;;;;;;11.63;7.33;;;15.70;34.50;;;;;;5093136;28;20059;-75
2021/04/28 10:40:24;;;;;;;12.50;7.93;;;15.70;34.30;;;;;;5093870;28;20460;-76
2021/04/28 10:42:51;;;;;;;9.67;7.30;;;15.70;35.10;;;;;;5092875;28;20056;-75
2021/04/28 10:45:23;;;;;;;9.23;7.13;;;15.70;35.20;;;;;;5093439;28;20097;-73
2021/04/28 10:47:55;;;;;;;10.17;7.00;;;15.70;34.90;;;;;;5093621;28;20055;-75
2021/04/28 10:50:40;;;;;;;8.60;7.50;;;15.80;34.50;;;;;;5093151;28;20048;-74
2021/04/28 10:53:17;;;;;;;8.67;6.73;;;15.80;34.40;;;;;;5093158;28;20048;-74
2021/04/28 10:55:49;;;;;;;8.93;6.77;;;15.90;34.40;;;;;;5092582;28;20105;-74
2021/04/28 10:58:23;;;;;;;7.63;6.40;;;16.10;34.10;;;;;;5093179;28;20059;-73
2021/04/28 11:00:49;;;;;;;8.07;6.97;;;16.10;33.30;;;;;;5093314;28;20059;-74
2021/04/28 11:03:35;;;;;;;11.30;7.20;;;16.10;33.60;;;;;;5092555;28;20064;-74
2021/04/28 11:08:45;;;;;;;8.73;7.70;;;16.10;32.90;;;;;;5093352;28;20135;-74
2021/04/28 11:11:29;;;;;;;8.20;7.17;;;16.10;33.00;;;;;;5092469;28;20048;-74
2021/04/28 11:14:10;;;;;;;10.67;7.77;;;16.20;33.20;;;;;;5092068;28;20062;-74
2021/04/28 11:16:52;;;;;;;9.23;7.70;;;16.40;33.00;;;;;;5092942;28;20412;-74
2021/04/28 11:19:35;;;;;;;10.27;7.37;;;16.40;32.70;;;;;;5092747;28;20044;-74
2021/04/28 11:22:07;;;;;;;10.03;7.50;;;16.50;33.50;;;;;;5092651;28;20165;-74
2021/04/28 11:24:51;;;;;;;;;;;16.60;33.40;;;;;;5092963;28;20087;-73
2021/04/28 11:27:51;;;;;;;8.93;7.97;;;16.60;32.60;;;;;;5092922;28;19920;-76
2021/04/28 11:30:21;;;;;;;9.50;8.20;;;16.70;33.70;;;;;;5092738;28;20188;-74
2021/04/28 11:33:16;;;;;;;9.40;7.90;;;16.70;33.20;;;;;;5091699;28;20040;-74
2021/04/28 11:35:43;;;;;;;10.27;8.10;;;16.70;32.20;;;;;;5092642;28;20492;-74
2021/04/28 11:38:17;;;;;;;10.60;8.77;;;16.60;32.90;;;;;;5091410;28;20056;-74
2021/04/28 11:41:00;;;;;;;11.17;8.60;;;16.50;32.90;;;;;;5092628;28;20059;-74
2021/04/28 11:43:28;;;;;;;10.77;8.07;;;16.50;32.80;;;;;;5092958;28;20066;-75
2021/04/28 11:46:00;;;;;;;9.70;8.50;;;16.40;32.70;;;;;;5091848;28;20052;-74
2021/04/28 11:48:26;;;;;;;10.43;9.20;;;16.40;32.80;;;;;;5092684;28;20127;-75
2021/04/28 11:50:56;;;;;;;11.03;8.70;;;16.30;33.30;;;;;;5092237;28;20048;-75
2021/04/28 11:53:22;;;;;;;12.30;8.43;;;16.40;33.20;;;;;;5091635;28;20496;-75
2021/04/28 11:55:49;;;;;;;11.07;8.63;;;16.50;32.70;;;;;;5092284;28;20040;-74
2021/04/28 11:58:29;;;;;;;12.47;9.10;;;16.50;32.60;;;;;;5092074;28;20164;-75
2021/04/28 12:01:13;;;;;;;10.60;8.77;;;16.60;32.40;;;;;;5091377;28;20154;-75
2021/04/28 12:03:51;;;;;;;10.40;9.17;;;16.60;32.60;;;;;;5092201;28;20051;-75
2021/04/28 12:06:38;;;;;;;9.97;8.67;;;16.70;31.90;;;;;;5091609;28;20054;-75
2021/04/28 12:09:30;;;;;;;9.60;8.60;;;16.80;32.90;;;;;;5091707;28;20075;-74
2021/04/28 12:12:26;;;;;;;12.17;9.00;;;16.90;32.50;;;;;;5091522;28;20044;-74
2021/04/28 12:15:04;;;;;;;10.30;8.80;;;17.10;32.90;;;;;;5091363;28;20059;-74
2021/04/28 12:17:32;;;;;;;10.70;8.77;;;17.30;32.20;;;;;;5092078;28;20055;-75
2021/04/28 12:19:58;;;;;;;10.33;9.10;;;17.40;31.80;;;;;;5090932;28;20130;-75
2021/04/28 12:22:26;;;;;;;11.23;9.37;;;17.40;32.00;;;;;;5091784;28;20044;-75
2021/04/28 12:24:54;;;;;;;11.13;8.77;;;17.40;31.40;;;;;;5091078;28;20439;-75
2021/04/28 12:27:34;;;;;;;10.07;8.23;;;17.40;31.70;;;;;;5091381;28;20048;-76
2021/04/28 12:30:04;;;;;;;13.67;9.37;;;17.30;31.50;;;;;;5091290;28;20185;-74
2021/04/28 12:32:45;;;;;;;15.70;9.40;;;17.00;32.10;;;;;;5091700;28;20131;-74
2021/04/28 12:35:23;;;;;;;14.00;9.20;;;16.80;32.20;;;;;;5090542;28;20403;-75
2021/04/28 12:38:12;;;;;;;11.20;8.77;;;16.80;32.40;;;;;;5091174;28;20056;-74
2021/04/28 12:40:52;;;;;;;10.80;8.77;;;16.90;32.70;;;;;;5091499;28;20565;-75
2021/04/28 12:43:32;;;;;;;9.73;8.33;;;17.10;32.80;;;;;;5090414;28;20097;-75
2021/04/28 12:46:09;;;;;;;11.43;9.10;;;17.30;32.40;;;;;;5091337;28;20047;-75
2021/04/28 12:48:55;;;;;;;11.23;9.20;;;17.40;32.00;;;;;;5091032;28;20132;-75
2021/04/28 12:51:25;;;;;;;12.23;9.07;;;17.50;32.00;;;;;;5091772;28;20135;-75
2021/04/28 12:53:51;;;;;;;12.07;8.90;;;17.40;31.70;;;;;;5091250;28;20447;-75
2021/04/28 12:56:17;;;;;;;10.83;9.67;;;17.40;32.40;;;;;;5090802;28;20040;-76
2021/04/28 12:58:50;;;;;;;12.13;9.70;;;17.40;32.30;;;;;;5091296;28;20055;-75
2021/04/28 13:01:18;;;;;;;10.57;9.27;;;17.40;32.40;;;;;;5091361;28;20062;-74